sensor_id;sensor_type;location;lat;lon;timestamp;pressure;altitude;pressure_sealevel;temperature;humidity
62544;BME280;48597;49.030;1.822;2023-06-14T00:02:06;100423.34;;;25.17;44.27
62544;BME280;48597;49.030;1.822;2023-06-14T00:04:34;100417.56;;;25.17;44.33
62544;BME280;48597;49.030;1.822;2023-06-14T00:07:00;100420.94;;;25.16;44.23
62544;BME280;48597;49.030;1.822;2023-06-14T00:09:25;100423.03;;;25.15;44.08
62544;BME280;48597;49.030;1.822;2023-06-14T00:11:50;100418.56;;;25.14;44.15
62544;BME280;48597;49.030;1.822;2023-06-14T00:14:16;100412.00;;;25.14;44.19
62544;BME280;48597;49.030;1.822;2023-06-14T00:16:41;100416.97;;;25.13;44.00
62544;BME280;48597;49.030;1.822;2023-06-14T00:19:08;100417.75;;;25.14;44.14
62544;BME280;48597;49.030;1.822;2023-06-14T00:21:36;100415.38;;;25.12;43.85
62544;BME280;48597;49.030;1.822;2023-06-14T00:24:02;100412.50;;;25.12;43.79
62544;BME280;48597;49.030;1.822;2023-06-14T00:26:27;100415.88;;;25.11;43.95
62544;BME280;48597;49.030;1.822;2023-06-14T00:28:53;100419.53;;;25.11;43.95
62544;BME280;48597;49.030;1.822;2023-06-14T00:31:19;100425.00;;;25.09;43.72
62544;BME280;48597;49.030;1.822;2023-06-14T00:33:44;100420.03;;;25.10;43.72
62544;BME280;48597;49.030;1.822;2023-06-14T00:36:10;100422.63;;;25.08;43.33
62544;BME280;48597;49.030;1.822;2023-06-14T00:38:35;100425.50;;;25.08;43.56
62544;BME280;48597;49.030;1.822;2023-06-14T00:41:01;100419.75;;;25.08;43.56
62544;BME280;48597;49.030;1.822;2023-06-14T00:43:26;100425.72;;;25.04;43.48
62544;BME280;48597;49.030;1.822;2023-06-14T00:45:52;100425.22;;;25.06;43.29
62544;BME280;48597;49.030;1.822;2023-06-14T00:48:17;100419.16;;;25.04;43.36
62544;BME280;48597;49.030;1.822;2023-06-14T00:50:44;100418.38;;;25.03;43.28
62544;BME280;48597;49.030;1.822;2023-06-14T00:53:14;100411.81;;;25.03;43.20
62544;BME280;48597;49.030;1.822;2023-06-14T00:55:40;100420.47;;;25.03;43.02
62544;BME280;48597;49.030;1.822;2023-06-14T00:58:06;100422.53;;;25.02;43.08
62544;BME280;48597;49.030;1.822;2023-06-14T01:00:31;100418.06;;;25.01;43.05
62544;BME280;48597;49.030;1.822;2023-06-14T01:02:57;100418.56;;;25.00;43.00
62544;BME280;48597;49.030;1.822;2023-06-14T01:05:23;100423.53;;;24.99;43.10
62544;BME280;48597;49.030;1.822;2023-06-14T01:08:24;100423.53;;;24.99;43.08
62544;BME280;48597;49.030;1.822;2023-06-14T01:10:57;100421.94;;;24.98;43.02
62544;BME280;48597;49.030;1.822;2023-06-14T01:13:29;100417.47;;;24.97;42.96
62544;BME280;48597;49.030;1.822;2023-06-14T01:15:57;100417.47;;;24.97;42.90
62544;BME280;48597;49.030;1.822;2023-06-14T01:18:23;100417.16;;;24.95;42.75
62544;BME280;48597;49.030;1.822;2023-06-14T01:20:51;100430.00;;;24.94;42.83
62544;BME280;48597;49.030;1.822;2023-06-14T01:23:19;100420.03;;;24.95;42.75
62544;BME280;48597;49.030;1.822;2023-06-14T01:25:45;100419.75;;;24.93;42.81
62544;BME280;48597;49.030;1.822;2023-06-14T01:28:12;100424.72;;;24.92;42.64
62544;BME280;48597;49.030;1.822;2023-06-14T01:30:41;100421.84;;;24.92;42.53
62544;BME280;48597;49.030;1.822;2023-06-14T01:33:14;100425.22;;;24.91;42.77
62544;BME280;48597;49.030;1.822;2023-06-14T01:35:43;100418.66;;;24.90;42.71
62544;BME280;48597;49.030;1.822;2023-06-14T01:38:09;100418.34;;;24.88;42.43
62544;BME280;48597;49.030;1.822;2023-06-14T01:44:07;100419.63;;;24.87;42.52
62544;BME280;48597;49.030;1.822;2023-06-14T01:46:34;100414.34;;;24.86;42.47
62544;BME280;48597;49.030;1.822;2023-06-14T01:49:02;100421.41;;;24.85;42.29
62544;BME280;48597;49.030;1.822;2023-06-14T01:51:28;100416.44;;;24.85;42.35
62544;BME280;48597;49.030;1.822;2023-06-14T01:53:54;100419.81;;;24.84;42.50
62544;BME280;48597;49.030;1.822;2023-06-14T01:56:20;100419.81;;;24.84;42.17
62544;BME280;48597;49.030;1.822;2023-06-14T01:58:46;100426.88;;;24.83;42.34
62544;BME280;48597;49.030;1.822;2023-06-14T02:01:13;100424.00;;;24.83;42.16
62544;BME280;48597;49.030;1.822;2023-06-14T02:03:41;100428.47;;;24.84;42.22
62544;BME280;48597;49.030;1.822;2023-06-14T02:06:07;100422.41;;;24.82;42.25
62544;BME280;48597;49.030;1.822;2023-06-14T02:08:33;100422.91;;;24.80;42.04
62544;BME280;48597;49.030;1.822;2023-06-14T02:10:58;100423.41;;;24.79;42.07
62544;BME280;48597;49.030;1.822;2023-06-14T02:13:23;100427.59;;;24.78;42.08
62544;BME280;48597;49.030;1.822;2023-06-14T02:15:49;100420.22;;;24.77;42.04
62544;BME280;48597;49.030;1.822;2023-06-14T02:18:19;100426.00;;;24.77;42.11
62544;BME280;48597;49.030;1.822;2023-06-14T02:20:45;100427.28;;;24.76;42.09
62544;BME280;48597;49.030;1.822;2023-06-14T02:23:11;100422.81;;;24.75;41.99
62544;BME280;48597;49.030;1.822;2023-06-14T02:25:37;100417.53;;;24.73;41.92
62544;BME280;48597;49.030;1.822;2023-06-14T02:28:02;100418.81;;;24.72;41.87
62544;BME280;48597;49.030;1.822;2023-06-14T02:30:28;100426.69;;;24.72;41.87
62544;BME280;48597;49.030;1.822;2023-06-14T02:32:53;100431.66;;;24.71;41.94
62544;BME280;48597;49.030;1.822;2023-06-14T02:35:22;100427.97;;;24.71;41.79
62544;BME280;48597;49.030;1.822;2023-06-14T02:37:51;100426.38;;;24.70;41.79
62544;BME280;48597;49.030;1.822;2023-06-14T02:40:18;100424.78;;;24.69;41.69
62544;BME280;48597;49.030;1.822;2023-06-14T02:42:49;100426.06;;;24.68;41.68
62544;BME280;48597;49.030;1.822;2023-06-14T02:45:15;100424.50;;;24.67;41.61
62544;BME280;48597;49.030;1.822;2023-06-14T02:47:40;100423.72;;;24.66;41.65
62544;BME280;48597;49.030;1.822;2023-06-14T02:50:08;100420.81;;;24.66;41.66
62544;BME280;48597;49.030;1.822;2023-06-14T02:52:35;100421.31;;;24.65;41.49
62544;BME280;48597;49.030;1.822;2023-06-14T02:55:00;100425.50;;;24.64;41.45
62544;BME280;48597;49.030;1.822;2023-06-14T02:57:26;100426.78;;;24.63;41.53
62544;BME280;48597;49.030;1.822;2023-06-14T02:59:51;100427.25;;;24.61;41.45
62544;BME280;48597;49.030;1.822;2023-06-14T03:02:17;100428.06;;;24.62;41.27
62544;BME280;48597;49.030;1.822;2023-06-14T03:04:42;100434.31;;;24.60;41.25
62544;BME280;48597;49.030;1.822;2023-06-14T03:07:09;100426.97;;;24.59;41.31
62544;BME280;48597;49.030;1.822;2023-06-14T03:09:38;100431.94;;;24.58;41.29
62544;BME280;48597;49.030;1.822;2023-06-14T03:12:05;100420.91;;;24.57;41.21
62544;BME280;48597;49.030;1.822;2023-06-14T03:14:35;100428.75;;;24.56;41.25
62544;BME280;48597;49.030;1.822;2023-06-14T03:17:00;100434.50;;;24.56;41.12
62544;BME280;48597;49.030;1.822;2023-06-14T03:19:26;100430.03;;;24.55;41.18
62544;BME280;48597;49.030;1.822;2023-06-14T03:21:52;100434.19;;;24.54;41.03
62544;BME280;48597;49.030;1.822;2023-06-14T03:24:18;100442.03;;;24.54;41.18
62544;BME280;48597;49.030;1.822;2023-06-14T03:26:45;100449.13;;;24.53;41.18
62544;BME280;48597;49.030;1.822;2023-06-14T03:29:10;100448.31;;;24.52;40.97
62544;BME280;48597;49.030;1.822;2023-06-14T03:31:41;100446.72;;;24.51;41.12
62544;BME280;48597;49.030;1.822;2023-06-14T03:34:20;100448.03;;;24.50;40.97
62544;BME280;48597;49.030;1.822;2023-06-14T03:36:45;100452.69;;;24.48;40.98
62544;BME280;48597;49.030;1.822;2023-06-14T03:39:11;100462.13;;;24.48;40.92
62544;BME280;48597;49.030;1.822;2023-06-14T03:41:38;100463.41;;;24.47;40.92
62544;BME280;48597;49.030;1.822;2023-06-14T03:44:04;100461.81;;;24.46;40.87
62544;BME280;48597;49.030;1.822;2023-06-14T03:46:29;100463.09;;;24.45;40.77
62544;BME280;48597;49.030;1.822;2023-06-14T03:48:54;100471.75;;;24.45;40.84
62544;BME280;48597;49.030;1.822;2023-06-14T03:51:20;100469.34;;;24.44;40.76
62544;BME280;48597;49.030;1.822;2023-06-14T03:53:45;100468.56;;;24.43;40.72
62544;BME280;48597;49.030;1.822;2023-06-14T03:56:11;100474.81;;;24.42;40.70
62544;BME280;48597;49.030;1.822;2023-06-14T03:58:36;100474.53;;;24.40;40.73
62544;BME280;48597;49.030;1.822;2023-06-14T04:01:02;100476.09;;;24.41;40.71
62544;BME280;48597;49.030;1.822;2023-06-14T04:03:27;100483.66;;;24.38;40.61
62544;BME280;48597;49.030;1.822;2023-06-14T04:05:54;100469.25;;;24.38;40.52
62544;BME280;48597;49.030;1.822;2023-06-14T04:08:21;100476.31;;;24.37;40.63
62544;BME280;48597;49.030;1.822;2023-06-14T04:10:47;100482.06;;;24.37;40.64
62544;BME280;48597;49.030;1.822;2023-06-14T04:13:12;100483.34;;;24.36;40.60
62544;BME280;48597;49.030;1.822;2023-06-14T04:15:39;100484.63;;;24.35;40.49
62544;BME280;48597;49.030;1.822;2023-06-14T04:18:07;100488.81;;;24.34;40.62
62544;BME280;48597;49.030;1.822;2023-06-14T04:20:33;100491.69;;;24.34;40.66
62544;BME280;48597;49.030;1.822;2023-06-14T04:23:11;100491.69;;;24.34;40.43
62544;BME280;48597;49.030;1.822;2023-06-14T04:25:37;100491.38;;;24.32;40.59
62544;BME280;48597;49.030;1.822;2023-06-14T04:28:03;100488.97;;;24.31;40.49
62544;BME280;48597;49.030;1.822;2023-06-14T04:30:29;100493.94;;;24.30;40.45
62544;BME280;48597;49.030;1.822;2023-06-14T04:32:56;100492.34;;;24.29;40.49
62544;BME280;48597;49.030;1.822;2023-06-14T04:35:22;100500.19;;;24.29;40.32
62544;BME280;48597;49.030;1.822;2023-06-14T04:37:49;100500.19;;;24.29;40.49
62544;BME280;48597;49.030;1.822;2023-06-14T04:40:14;100504.38;;;24.28;40.39
62544;BME280;48597;49.030;1.822;2023-06-14T04:42:40;100500.72;;;24.27;40.60
62544;BME280;48597;49.030;1.822;2023-06-14T04:45:06;100501.50;;;24.28;40.53
62544;BME280;48597;49.030;1.822;2023-06-14T04:47:32;100504.88;;;24.26;40.44
62544;BME280;48597;49.030;1.822;2023-06-14T04:49:59;100506.94;;;24.26;40.45
62544;BME280;48597;49.030;1.822;2023-06-14T04:52:25;100503.28;;;24.25;40.45
62544;BME280;48597;49.030;1.822;2023-06-14T04:54:52;100510.31;;;24.24;40.49
62544;BME280;48597;49.030;1.822;2023-06-14T04:57:19;100502.97;;;24.23;40.72
62544;BME280;48597;49.030;1.822;2023-06-14T04:59:48;100502.97;;;24.23;40.58
62544;BME280;48597;49.030;1.822;2023-06-14T05:02:13;100510.81;;;24.23;40.54
62544;BME280;48597;49.030;1.822;2023-06-14T05:04:39;100509.97;;;24.22;40.74
62544;BME280;48597;49.030;1.822;2023-06-14T05:07:08;100509.19;;;24.21;40.76
62544;BME280;48597;49.030;1.822;2023-06-14T05:09:34;100506.78;;;24.20;40.83
62544;BME280;48597;49.030;1.822;2023-06-14T05:12:00;100514.63;;;24.19;40.83
62544;BME280;48597;49.030;1.822;2023-06-14T05:14:26;100508.56;;;24.17;40.81
62544;BME280;48597;49.030;1.822;2023-06-14T05:16:52;100505.69;;;24.17;40.89
62544;BME280;48597;49.030;1.822;2023-06-14T05:19:17;100500.41;;;24.16;40.92
62544;BME280;48597;49.030;1.822;2023-06-14T05:21:43;100503.59;;;24.18;40.97
62544;BME280;48597;49.030;1.822;2023-06-14T05:24:09;100499.91;;;24.17;41.00
62544;BME280;48597;49.030;1.822;2023-06-14T05:26:35;100502.00;;;24.17;41.00
62544;BME280;48597;49.030;1.822;2023-06-14T05:29:00;100503.28;;;24.16;41.00
62544;BME280;48597;49.030;1.822;2023-06-14T05:31:27;100504.88;;;24.17;41.23
62544;BME280;48597;49.030;1.822;2023-06-14T05:33:53;100503.28;;;24.16;41.27
62544;BME280;48597;49.030;1.822;2023-06-14T05:36:19;100501.69;;;24.15;40.99
62544;BME280;48597;49.030;1.822;2023-06-14T05:38:46;100499.59;;;24.15;41.24
62544;BME280;48597;49.030;1.822;2023-06-14T05:41:11;100504.56;;;24.15;41.43
62544;BME280;48597;49.030;1.822;2023-06-14T05:43:37;100496.72;;;24.15;41.35
62544;BME280;48597;49.030;1.822;2023-06-14T05:46:02;100495.94;;;24.15;41.48
62544;BME280;48597;49.030;1.822;2023-06-14T05:48:28;100498.03;;;24.14;41.47
62544;BME280;48597;49.030;1.822;2023-06-14T05:50:54;100501.69;;;24.15;41.48
62544;BME280;48597;49.030;1.822;2023-06-14T05:53:19;100501.69;;;24.15;41.69
62544;BME280;48597;49.030;1.822;2023-06-14T05:55:45;100503.81;;;24.14;41.61
62544;BME280;48597;49.030;1.822;2023-06-14T05:58:10;100509.03;;;24.16;41.79
62544;BME280;48597;49.030;1.822;2023-06-14T06:00:36;100506.16;;;24.16;41.79
62544;BME280;48597;49.030;1.822;2023-06-14T06:03:01;100501.69;;;24.15;41.86
62544;BME280;48597;49.030;1.822;2023-06-14T06:05:27;100514.00;;;24.15;41.93
62544;BME280;48597;49.030;1.822;2023-06-14T06:07:52;100512.72;;;24.16;41.98
62544;BME280;48597;49.030;1.822;2023-06-14T06:10:18;100516.88;;;24.15;42.06
62544;BME280;48597;49.030;1.822;2023-06-14T06:12:43;100511.94;;;24.16;42.20
62544;BME280;48597;49.030;1.822;2023-06-14T06:15:09;100514.81;;;24.16;42.22
62544;BME280;48597;49.030;1.822;2023-06-14T06:17:38;100517.69;;;24.16;42.32
62544;BME280;48597;49.030;1.822;2023-06-14T06:20:04;100511.94;;;24.16;42.32
62544;BME280;48597;49.030;1.822;2023-06-14T06:22:31;100524.25;;;24.16;42.40
62544;BME280;48597;49.030;1.822;2023-06-14T06:24:57;100523.44;;;24.16;42.47
62544;BME280;48597;49.030;1.822;2023-06-14T06:27:22;100523.44;;;24.16;42.55
62544;BME280;48597;49.030;1.822;2023-06-14T06:29:47;100524.25;;;24.16;42.80
62544;BME280;48597;49.030;1.822;2023-06-14T06:32:14;100531.59;;;24.17;42.67
62544;BME280;48597;49.030;1.822;2023-06-14T06:34:40;100538.16;;;24.18;42.82
62544;BME280;48597;49.030;1.822;2023-06-14T06:37:05;100542.31;;;24.17;42.62
62544;BME280;48597;49.030;1.822;2023-06-14T06:39:31;100535.28;;;24.18;42.69
62544;BME280;48597;49.030;1.822;2023-06-14T06:41:56;100537.34;;;24.17;42.82
62544;BME280;48597;49.030;1.822;2023-06-14T06:44:22;100544.72;;;24.18;42.79
62544;BME280;48597;49.030;1.822;2023-06-14T06:46:47;100544.72;;;24.18;42.98
62544;BME280;48597;49.030;1.822;2023-06-14T06:49:13;100551.28;;;24.19;42.93
62544;BME280;48597;49.030;1.822;2023-06-14T06:51:41;100546.31;;;24.19;42.95
62544;BME280;48597;49.030;1.822;2023-06-14T06:54:10;100555.75;;;24.20;43.03
62544;BME280;48597;49.030;1.822;2023-06-14T06:56:36;100554.94;;;24.19;43.09
62544;BME280;48597;49.030;1.822;2023-06-14T06:59:01;100555.75;;;24.20;43.12
62544;BME280;48597;49.030;1.822;2023-06-14T07:01:27;100564.38;;;24.20;43.17
62544;BME280;48597;49.030;1.822;2023-06-14T07:03:54;100561.03;;;24.21;43.23
62544;BME280;48597;49.030;1.822;2023-06-14T07:06:20;100561.81;;;24.22;43.19
62544;BME280;48597;49.030;1.822;2023-06-14T07:08:46;100569.22;;;24.23;43.40
62544;BME280;48597;49.030;1.822;2023-06-14T07:11:13;100569.22;;;24.23;43.33
62544;BME280;48597;49.030;1.822;2023-06-14T07:13:39;100561.38;;;24.24;43.35
62544;BME280;48597;49.030;1.822;2023-06-14T07:16:04;100569.53;;;24.25;43.19
62544;BME280;48597;49.030;1.822;2023-06-14T07:18:30;100572.41;;;24.25;43.42
62544;BME280;48597;49.030;1.822;2023-06-14T07:20:56;100565.84;;;24.25;43.57
62544;BME280;48597;49.030;1.822;2023-06-14T07:23:22;100580.56;;;24.27;43.64
62544;BME280;48597;49.030;1.822;2023-06-14T07:25:48;100580.56;;;24.27;43.72
62544;BME280;48597;49.030;1.822;2023-06-14T07:28:13;100582.94;;;24.28;43.82
62544;BME280;48597;49.030;1.822;2023-06-14T07:30:39;100580.03;;;24.28;43.87
62544;BME280;48597;49.030;1.822;2023-06-14T07:33:04;100593.16;;;24.29;44.20
62544;BME280;48597;49.030;1.822;2023-06-14T07:35:30;100597.63;;;24.30;44.10
62544;BME280;48597;49.030;1.822;2023-06-14T07:37:56;100602.91;;;24.32;44.11
62544;BME280;48597;49.030;1.822;2023-06-14T07:40:21;100600.84;;;24.32;44.27
62544;BME280;48597;49.030;1.822;2023-06-14T07:42:47;100605.78;;;24.32;44.37
62544;BME280;48597;49.030;1.822;2023-06-14T07:45:13;100601.63;;;24.33;44.47
62544;BME280;48597;49.030;1.822;2023-06-14T07:47:39;100603.22;;;24.34;44.45
62544;BME280;48597;49.030;1.822;2023-06-14T07:50:05;100608.50;;;24.35;44.39
62544;BME280;48597;49.030;1.822;2023-06-14T07:52:30;100611.38;;;24.35;44.56
62544;BME280;48597;49.030;1.822;2023-06-14T07:54:56;100615.88;;;24.36;44.51
62544;BME280;48597;49.030;1.822;2023-06-14T07:57:22;100609.63;;;24.38;44.69
62544;BME280;48597;49.030;1.822;2023-06-14T07:59:47;100610.41;;;24.38;44.58
62544;BME280;48597;49.030;1.822;2023-06-14T08:02:13;100611.22;;;24.39;44.82
62544;BME280;48597;49.030;1.822;2023-06-14T08:04:38;100612.81;;;24.40;44.90
62544;BME280;48597;49.030;1.822;2023-06-14T08:07:04;100606.53;;;24.41;44.90
62544;BME280;48597;49.030;1.822;2023-06-14T08:09:29;100616.78;;;24.42;45.54
62544;BME280;48597;49.030;1.822;2023-06-14T08:11:56;100612.59;;;24.43;45.60
62544;BME280;48597;49.030;1.822;2023-06-14T08:14:21;100607.63;;;24.44;45.90
62544;BME280;48597;49.030;1.822;2023-06-14T08:16:47;100615.00;;;24.45;46.22
62544;BME280;48597;49.030;1.822;2023-06-14T08:19:12;100615.81;;;24.45;46.52
62544;BME280;48597;49.030;1.822;2023-06-14T08:21:38;100618.19;;;24.47;46.61
62544;BME280;48597;49.030;1.822;2023-06-14T08:24:03;100619.00;;;24.47;46.53
62544;BME280;48597;49.030;1.822;2023-06-14T08:26:30;100617.72;;;24.48;46.65
62544;BME280;48597;49.030;1.822;2023-06-14T08:28:55;100620.91;;;24.50;46.87
62544;BME280;48597;49.030;1.822;2023-06-14T08:31:21;100615.13;;;24.50;46.89
62544;BME280;48597;49.030;1.822;2023-06-14T08:33:47;100615.94;;;24.51;46.76
62544;BME280;48597;49.030;1.822;2023-06-14T08:36:12;100621.69;;;24.51;47.13
62544;BME280;48597;49.030;1.822;2023-06-14T08:38:38;100622.81;;;24.53;47.08
62544;BME280;48597;49.030;1.822;2023-06-14T08:41:05;100623.59;;;24.54;46.85
62544;BME280;48597;49.030;1.822;2023-06-14T08:43:33;100621.50;;;24.54;46.85
62544;BME280;48597;49.030;1.822;2023-06-14T08:46:01;100628.84;;;24.55;46.85
62544;BME280;48597;49.030;1.822;2023-06-14T08:48:27;100618.94;;;24.56;46.71
62544;BME280;48597;49.030;1.822;2023-06-14T08:50:55;100623.41;;;24.57;46.86
62544;BME280;48597;49.030;1.822;2023-06-14T08:53:28;100621.31;;;24.58;47.13
62544;BME280;48597;49.030;1.822;2023-06-14T08:55:54;100623.72;;;24.60;46.88
62544;BME280;48597;49.030;1.822;2023-06-14T08:58:21;100626.59;;;24.60;47.25
62544;BME280;48597;49.030;1.822;2023-06-14T09:00:49;100626.13;;;24.61;47.33
62544;BME280;48597;49.030;1.822;2023-06-14T09:03:17;100629.31;;;24.63;47.29
62544;BME280;48597;49.030;1.822;2023-06-14T09:05:45;100625.16;;;24.64;47.03
62544;BME280;48597;49.030;1.822;2023-06-14T09:08:11;100625.16;;;24.64;47.35
62544;BME280;48597;49.030;1.822;2023-06-14T09:10:36;100618.09;;;24.65;47.41
62544;BME280;48597;49.030;1.822;2023-06-14T09:13:03;100632.00;;;24.67;47.30
62544;BME280;48597;49.030;1.822;2023-06-14T09:15:30;100630.69;;;24.68;47.55
62544;BME280;48597;49.030;1.822;2023-06-14T09:17:55;100629.41;;;24.69;47.60
62544;BME280;48597;49.030;1.822;2023-06-14T09:20:21;100620.78;;;24.69;47.50
62544;BME280;48597;49.030;1.822;2023-06-14T09:22:49;100621.56;;;24.69;47.50
62544;BME280;48597;49.030;1.822;2023-06-14T09:25:14;100626.84;;;24.71;47.51
62544;BME280;48597;49.030;1.822;2023-06-14T09:27:41;100622.69;;;24.72;47.46
62544;BME280;48597;49.030;1.822;2023-06-14T09:30:09;100640.28;;;24.74;47.52
62544;BME280;48597;49.030;1.822;2023-06-14T09:32:38;100628.25;;;24.75;47.48
62544;BME280;48597;49.030;1.822;2023-06-14T09:35:07;100628.25;;;24.75;47.48
62544;BME280;48597;49.030;1.822;2023-06-14T09:37:34;100645.88;;;24.77;47.54
62544;BME280;48597;49.030;1.822;2023-06-14T09:39:59;100638.81;;;24.78;47.45
62544;BME280;48597;49.030;1.822;2023-06-14T09:42:25;100630.16;;;24.78;47.37
62544;BME280;48597;49.030;1.822;2023-06-14T09:44:52;100635.41;;;24.80;47.29
62544;BME280;48597;49.030;1.822;2023-06-14T09:47:19;100637.00;;;24.81;47.29
62544;BME280;48597;49.030;1.822;2023-06-14T09:49:45;100632.84;;;24.82;47.36
62544;BME280;48597;49.030;1.822;2023-06-14T09:52:14;100636.03;;;24.84;47.11
62544;BME280;48597;49.030;1.822;2023-06-14T09:54:41;100643.41;;;24.85;47.24
62544;BME280;48597;49.030;1.822;2023-06-14T09:57:15;100634.75;;;24.85;47.34
62544;BME280;48597;49.030;1.822;2023-06-14T09:59:43;100639.22;;;24.86;47.08
62544;BME280;48597;49.030;1.822;2023-06-14T10:02:14;100636.66;;;24.88;47.03
62544;BME280;48597;49.030;1.822;2023-06-14T10:04:46;100641.13;;;24.89;47.17
62544;BME280;48597;49.030;1.822;2023-06-14T10:07:15;100634.09;;;24.90;47.21
62544;BME280;48597;49.030;1.822;2023-06-14T10:09:44;100638.56;;;24.91;46.99
62544;BME280;48597;49.030;1.822;2023-06-14T10:12:16;100640.66;;;24.90;47.14
62544;BME280;48597;49.030;1.822;2023-06-14T10:14:47;100636.47;;;24.91;46.83
62544;BME280;48597;49.030;1.822;2023-06-14T10:17:20;100634.72;;;24.94;47.07
62544;BME280;48597;49.030;1.822;2023-06-14T10:19:54;100629.75;;;24.95;47.10
62544;BME280;48597;49.030;1.822;2023-06-14T10:22:32;100637.09;;;24.96;46.97
62544;BME280;48597;49.030;1.822;2023-06-14T10:24:59;100636.63;;;24.97;47.53
62544;BME280;48597;49.030;1.822;2023-06-14T10:27:24;100635.31;;;24.98;47.28
62544;BME280;48597;49.030;1.822;2023-06-14T10:32:20;100638.53;;;25.00;47.18
62544;BME280;48597;49.030;1.822;2023-06-14T10:34:45;100634.34;;;25.01;47.22
62544;BME280;48597;49.030;1.822;2023-06-14T10:37:12;100630.19;;;25.02;46.91
62544;BME280;48597;49.030;1.822;2023-06-14T10:39:42;100638.34;;;25.04;47.01
62544;BME280;48597;49.030;1.822;2023-06-14T10:42:09;100633.38;;;25.04;47.12
62544;BME280;48597;49.030;1.822;2023-06-14T10:47:27;100630.28;;;25.08;47.21
62544;BME280;48597;49.030;1.822;2023-06-14T10:52:24;100629.78;;;25.09;46.96
62544;BME280;48597;49.030;1.822;2023-06-14T10:55:05;100622.72;;;25.10;46.93
62544;BME280;48597;49.030;1.822;2023-06-14T10:57:47;100621.94;;;25.10;47.01
62544;BME280;48597;49.030;1.822;2023-06-14T11:00:16;100624.31;;;25.11;46.93
62544;BME280;48597;49.030;1.822;2023-06-14T11:05:53;100629.59;;;25.13;46.90
62544;BME280;48597;49.030;1.822;2023-06-14T11:11:16;100621.56;;;25.17;46.90
62544;BME280;48597;49.030;1.822;2023-06-14T11:13:44;100625.25;;;25.17;46.70
62544;BME280;48597;49.030;1.822;2023-06-14T11:16:15;100618.94;;;25.19;46.74
62544;BME280;48597;49.030;1.822;2023-06-14T11:18:42;100618.47;;;25.20;46.45
62544;BME280;48597;49.030;1.822;2023-06-14T11:21:09;100612.69;;;25.20;46.34
62544;BME280;48597;49.030;1.822;2023-06-14T11:23:35;100608.53;;;25.21;46.39
62544;BME280;48597;49.030;1.822;2023-06-14T11:26:00;100623.25;;;25.23;46.71
62544;BME280;48597;49.030;1.822;2023-06-14T11:28:38;100619.06;;;25.24;46.61
62544;BME280;48597;49.030;1.822;2023-06-14T11:31:05;100617.47;;;25.23;46.57
62544;BME280;48597;49.030;1.822;2023-06-14T11:33:31;100617.78;;;25.25;46.43
62544;BME280;48597;49.030;1.822;2023-06-14T11:35:56;100628.03;;;25.26;46.65
62544;BME280;48597;49.030;1.822;2023-06-14T11:38:22;100609.44;;;25.27;46.46
62544;BME280;48597;49.030;1.822;2023-06-14T11:40:47;100610.25;;;25.28;46.80
62544;BME280;48597;49.030;1.822;2023-06-14T11:43:12;100608.16;;;25.28;46.48
62544;BME280;48597;49.030;1.822;2023-06-14T11:45:39;100613.44;;;25.30;46.47
62544;BME280;48597;49.030;1.822;2023-06-14T11:48:06;100609.25;;;25.31;46.26
62544;BME280;48597;49.030;1.822;2023-06-14T11:50:31;100620.28;;;25.33;46.31
62544;BME280;48597;49.030;1.822;2023-06-14T11:53:01;100610.31;;;25.34;46.46
62544;BME280;48597;49.030;1.822;2023-06-14T11:55:36;100618.97;;;25.34;46.39
62544;BME280;48597;49.030;1.822;2023-06-14T11:58:01;100604.56;;;25.34;46.37
62544;BME280;48597;49.030;1.822;2023-06-14T12:00:28;100611.44;;;25.36;46.31
62544;BME280;48597;49.030;1.822;2023-06-14T12:02:55;100610.63;;;25.36;46.50
62544;BME280;48597;49.030;1.822;2023-06-14T12:05:24;100610.94;;;25.38;46.53
62544;BME280;48597;49.030;1.822;2023-06-14T12:07:58;100613.34;;;25.39;46.39
62544;BME280;48597;49.030;1.822;2023-06-14T12:10:25;100605.16;;;25.38;46.32
62544;BME280;48597;49.030;1.822;2023-06-14T12:12:51;100609.16;;;25.40;46.26
62544;BME280;48597;49.030;1.822;2023-06-14T12:15:22;100616.41;;;25.36;46.22
62544;BME280;48597;49.030;1.822;2023-06-14T12:17:47;100621.97;;;25.39;46.13
62544;BME280;48597;49.030;1.822;2023-06-14T12:20:13;100617.81;;;25.40;46.26
62544;BME280;48597;49.030;1.822;2023-06-14T12:22:51;100618.91;;;25.43;46.08
62544;BME280;48597;49.030;1.822;2023-06-14T12:25:32;100618.91;;;25.43;45.95
62544;BME280;48597;49.030;1.822;2023-06-14T12:27:59;100611.84;;;25.44;45.66
62544;BME280;48597;49.030;1.822;2023-06-14T12:30:28;100612.66;;;25.44;45.77
62544;BME280;48597;49.030;1.822;2023-06-14T12:32:53;100617.09;;;25.45;45.92
62544;BME280;48597;49.030;1.822;2023-06-14T12:35:19;100618.69;;;25.46;46.03
62544;BME280;48597;49.030;1.822;2023-06-14T12:37:45;100623.19;;;25.47;45.67
62544;BME280;48597;49.030;1.822;2023-06-14T12:40:11;100615.31;;;25.48;45.64
62544;BME280;48597;49.030;1.822;2023-06-14T12:42:37;100617.72;;;25.49;45.87
62544;BME280;48597;49.030;1.822;2023-06-14T12:45:02;100617.22;;;25.51;45.60
62544;BME280;48597;49.030;1.822;2023-06-14T12:47:28;100615.63;;;25.50;45.88
62544;BME280;48597;49.030;1.822;2023-06-14T12:49:53;100622.50;;;25.52;45.87
62544;BME280;48597;49.030;1.822;2023-06-14T12:52:19;100623.28;;;25.53;45.87
62544;BME280;48597;49.030;1.822;2023-06-14T12:54:44;100620.41;;;25.53;45.87
62544;BME280;48597;49.030;1.822;2023-06-14T12:57:10;100618.31;;;25.53;46.00
62544;BME280;48597;49.030;1.822;2023-06-14T12:59:35;100613.34;;;25.54;45.90
62544;BME280;48597;49.030;1.822;2023-06-14T13:02:17;100612.06;;;25.55;45.76
62544;BME280;48597;49.030;1.822;2023-06-14T13:04:43;100612.84;;;25.55;45.89
62544;BME280;48597;49.030;1.822;2023-06-14T13:07:09;100612.34;;;25.57;45.91